Time;durP1;ratioP1;P1;durP2;ratioP2;P2;SDS_P1;SDS_P2;PMS_P1;PMS_P2;Temp;Humidity;BMP_temperature;BMP_pressure;BME280_temperature;BME280_humidity;BME280_pressure;Samples;Min_cycle;Max_cycle;Signal;HPM_P1;HPM_P2
2023/08/12 00:01:42;;;;;;;3.97;2.78;;;25.70;66.30;;;;;;4897142;29;20497;-77
2023/08/12 00:04:08;;;;;;;3.38;2.33;;;25.70;66.40;;;;;;4897502;29;20043;-78
2023/08/12 00:06:33;;;;;;;3.25;2.60;;;25.60;66.40;;;;;;4897041;29;20124;-77
2023/08/12 00:08:59;;;;;;;4.00;2.72;;;25.60;66.40;;;;;;4897485;29;20059;-77
2023/08/12 00:11:25;;;;;;;4.10;2.65;;;25.60;66.40;;;;;;4897569;29;20501;-76
2023/08/12 00:13:50;;;;;;;4.07;2.72;;;25.50;66.40;;;;;;4896853;29;20131;-77
2023/08/12 00:16:16;;;;;;;3.30;2.53;;;25.50;66.40;;;;;;4881984;29;20116;-77
2023/08/12 00:18:42;;;;;;;3.40;2.50;;;25.50;66.40;;;;;;4897165;29;20217;-78
2023/08/12 00:21:11;;;;;;;2.95;2.25;;;25.50;66.50;;;;;;4913687;29;20037;-77
2023/08/12 00:23:44;;;;;;;3.58;2.75;;;25.40;66.40;;;;;;4898378;29;20032;-77
2023/08/12 00:26:09;;;;;;;3.75;2.58;;;25.40;66.50;;;;;;4897312;29;20047;-78
2023/08/12 00:28:35;;;;;;;3.70;2.50;;;25.40;66.50;;;;;;4897854;29;20036;-78
2023/08/12 00:31:01;;;;;;;3.78;2.60;;;25.40;66.50;;;;;;4898356;29;20048;-77
2023/08/12 00:33:27;;;;;;;3.67;2.70;;;25.40;66.50;;;;;;4896918;29;20389;-77
2023/08/12 00:35:53;;;;;;;3.83;2.70;;;25.40;66.60;;;;;;4899022;29;20448;-78
2023/08/12 00:38:18;;;;;;;3.78;2.63;;;25.40;66.60;;;;;;4881222;29;20051;-77
2023/08/12 00:40:44;;;;;;;2.95;2.30;;;25.40;66.70;;;;;;4882240;29;20158;-77
2023/08/12 00:43:10;;;;;;;4.43;2.55;;;25.30;66.60;;;;;;4881519;29;20509;-77
2023/08/12 00:45:36;;;;;;;4.57;2.70;;;25.30;66.60;;;;;;4881448;29;20033;-78
2023/08/12 00:48:03;;;;;;;2.95;2.20;;;25.30;66.60;;;;;;4912702;29;20044;-78
2023/08/12 00:50:29;;;;;;;3.00;2.38;;;25.30;66.60;;;;;;4896552;29;20047;-77
2023/08/12 00:52:57;;;;;;;4.47;2.67;;;25.20;66.60;;;;;;4896829;29;20036;-78
2023/08/12 00:55:22;;;;;;;3.42;2.50;;;25.20;66.60;;;;;;4897118;29;20036;-77
2023/08/12 00:57:49;;;;;;;3.97;2.50;;;25.20;66.60;;;;;;4881196;29;20437;-78
2023/08/12 01:00:16;;;;;;;3.03;2.10;;;25.20;66.70;;;;;;4896808;29;20509;-77
2023/08/12 01:02:47;;;;;;;3.80;2.38;;;25.20;66.70;;;;;;4896882;29;20036;-77
2023/08/12 01:05:14;;;;;;;3.13;2.40;;;25.20;66.80;;;;;;4897034;29;20390;-77
2023/08/12 01:07:40;;;;;;;3.17;2.33;;;25.20;66.80;;;;;;4900556;29;20044;-78
2023/08/12 01:10:06;;;;;;;3.30;2.45;;;25.20;66.80;;;;;;4900381;29;20033;-77
2023/08/12 01:12:49;;;;;;;3.72;2.53;;;25.10;66.70;;;;;;4899869;29;20031;-77
2023/08/12 01:15:21;;;;;;;2.97;2.25;;;25.10;66.80;;;;;;4900543;29;20482;-78
2023/08/12 01:17:51;;;;;;;3.53;2.53;;;25.10;66.80;;;;;;4901012;29;20127;-77
2023/08/12 01:20:24;;;;;;;3.33;2.05;;;25.10;66.80;;;;;;4916207;29;20386;-78
2023/08/12 01:22:58;;;;;;;3.00;2.20;;;25.10;66.90;;;;;;4900219;29;20037;-76
2023/08/12 01:25:27;;;;;;;3.28;2.30;;;25.10;66.90;;;;;;4900484;29;20035;-75
2023/08/12 01:27:53;;;;;;;3.08;1.98;;;25.00;66.80;;;;;;4884375;29;20399;-75
2023/08/12 01:30:20;;;;;;;3.25;2.25;;;25.00;66.90;;;;;;4900135;29;20041;-75
2023/08/12 01:33:19;;;;;;;3.55;2.40;;;25.00;66.90;;;;;;4900085;29;20033;-77
2023/08/12 01:36:00;;;;;;;3.53;2.17;;;25.00;67.00;;;;;;4900315;29;20049;-75
2023/08/12 01:38:28;;;;;;;2.55;2.00;;;24.90;66.90;;;;;;4900252;29;20104;-76
2023/08/12 01:40:54;;;;;;;2.70;2.30;;;24.90;67.00;;;;;;4915405;29;20124;-77
2023/08/12 01:43:21;;;;;;;2.75;2.08;;;24.90;67.00;;;;;;4899930;29;20343;-77
2023/08/12 01:45:46;;;;;;;3.03;2.33;;;24.90;67.00;;;;;;4900772;29;20124;-77
2023/08/12 01:48:12;;;;;;;3.17;2.38;;;24.90;67.00;;;;;;4899761;29;20041;-76
2023/08/12 01:50:38;;;;;;;3.65;2.78;;;24.90;67.10;;;;;;4899845;29;20033;-75
2023/08/12 01:53:04;;;;;;;3.10;2.20;;;24.90;67.10;;;;;;4899837;29;20067;-76
2023/08/12 01:55:30;;;;;;;2.70;2.33;;;24.80;67.10;;;;;;4883976;29;20033;-75
2023/08/12 01:57:56;;;;;;;3.58;2.58;;;24.80;67.10;;;;;;4900346;29;20464;-75
2023/08/12 02:00:22;;;;;;;3.10;2.55;;;24.80;67.20;;;;;;4899696;29;20037;-75
2023/08/12 02:02:48;;;;;;;3.20;2.40;;;24.80;67.20;;;;;;4883684;29;20569;-77
2023/08/12 02:05:14;;;;;;;3.85;2.67;;;24.80;67.20;;;;;;4883890;29;20080;-76
2023/08/12 02:07:40;;;;;;;3.38;2.53;;;24.80;67.20;;;;;;4899387;29;20044;-77
2023/08/12 02:10:09;;;;;;;3.22;2.50;;;24.70;67.20;;;;;;4884458;29;20068;-77
2023/08/12 02:12:35;;;;;;;3.05;2.45;;;24.80;67.30;;;;;;4900081;29;20029;-77
2023/08/12 02:15:00;;;;;;;2.88;2.28;;;24.70;67.20;;;;;;4883651;29;20040;-77
2023/08/12 02:17:26;;;;;;;2.83;2.53;;;24.70;67.20;;;;;;4899007;29;20036;-77
2023/08/12 02:19:52;;;;;;;3.97;2.65;;;24.70;67.20;;;;;;4899225;29;20092;-76
2023/08/12 02:22:17;;;;;;;3.50;2.60;;;24.70;67.30;;;;;;4884297;29;20351;-77
2023/08/12 02:24:43;;;;;;;3.53;2.65;;;24.70;67.30;;;;;;4899233;29;20032;-76
2023/08/12 02:27:09;;;;;;;2.95;2.45;;;24.60;67.30;;;;;;4899767;29;20411;-76
2023/08/12 02:29:34;;;;;;;3.80;2.85;;;24.60;67.30;;;;;;4915028;29;20427;-76
2023/08/12 02:32:00;;;;;;;3.63;2.72;;;24.60;67.40;;;;;;4883321;29;20039;-77
2023/08/12 02:34:26;;;;;;;3.97;2.90;;;24.60;67.40;;;;;;4883316;29;20056;-76
2023/08/12 02:36:52;;;;;;;4.18;2.97;;;24.60;67.40;;;;;;4900162;29;20104;-76
2023/08/12 02:39:17;;;;;;;3.80;2.58;;;24.60;67.50;;;;;;4883264;29;20458;-76
2023/08/12 02:41:43;;;;;;;3.88;3.10;;;24.60;68.10;;;;;;4883299;29;20379;-76
2023/08/12 02:44:09;;;;;;;5.07;3.20;;;24.50;67.50;;;;;;4898743;29;20040;-76
2023/08/12 02:46:34;;;;;;;4.47;3.20;;;24.60;67.60;;;;;;4899430;29;20455;-77
2023/08/12 02:49:00;;;;;;;3.75;2.90;;;24.50;67.50;;;;;;4899290;29;20480;-75
2023/08/12 02:51:26;;;;;;;3.90;3.08;;;24.50;67.50;;;;;;4898672;29;20067;-77
2023/08/12 02:53:52;;;;;;;3.95;2.95;;;24.50;67.60;;;;;;4898698;29;20438;-76
2023/08/12 02:56:17;;;;;;;4.28;3.22;;;24.50;67.60;;;;;;4913997;29;20037;-78
2023/08/12 02:58:43;;;;;;;4.13;3.05;;;24.50;67.60;;;;;;4898452;29;20092;-77
2023/08/12 03:01:09;;;;;;;4.07;3.17;;;24.50;67.60;;;;;;4899044;29;20064;-77
2023/08/12 03:03:35;;;;;;;4.22;3.03;;;24.50;67.60;;;;;;4898355;29;20131;-76
2023/08/12 03:06:00;;;;;;;3.38;2.88;;;24.50;67.70;;;;;;4914295;29;20045;-76
2023/08/12 03:08:28;;;;;;;4.57;3.67;;;24.50;67.70;;;;;;4913933;29;20048;-76
2023/08/12 03:11:03;;;;;;;4.00;3.05;;;24.50;67.70;;;;;;4898167;29;20044;-77
2023/08/12 03:13:30;;;;;;;4.03;3.08;;;24.50;67.80;;;;;;4883076;29;20033;-76
2023/08/12 03:15:57;;;;;;;4.55;3.30;;;24.40;68.30;;;;;;4882790;29;20040;-76
2023/08/12 03:18:23;;;;;;;4.75;3.58;;;24.40;67.80;;;;;;4898136;29;20512;-76
2023/08/12 03:20:50;;;;;;;4.50;3.42;;;24.40;67.80;;;;;;4898014;29;20044;-76
2023/08/12 03:23:16;;;;;;;4.60;3.70;;;24.40;67.80;;;;;;4897966;29;20151;-76
2023/08/12 03:25:43;;;;;;;4.57;3.40;;;24.40;67.80;;;;;;4913401;29;20040;-77
2023/08/12 03:28:08;;;;;;;3.97;3.05;;;24.40;67.80;;;;;;4897069;29;20036;-78
2023/08/12 03:30:36;;;;;;;4.32;3.40;;;24.40;67.80;;;;;;4882644;29;20060;-76
2023/08/12 03:33:02;;;;;;;4.53;3.70;;;24.30;67.90;;;;;;4882346;29;20037;-76
2023/08/12 03:35:31;;;;;;;4.35;3.60;;;24.40;67.90;;;;;;4913390;29;20048;-76
2023/08/12 03:37:57;;;;;;;4.35;3.17;;;24.30;67.90;;;;;;4897795;29;20036;-76
2023/08/12 03:40:23;;;;;;;4.90;3.50;;;24.30;67.90;;;;;;4897663;29;20040;-80
2023/08/12 03:42:49;;;;;;;5.40;3.67;;;24.30;67.90;;;;;;4913345;29;20059;-77
2023/08/12 03:45:16;;;;;;;4.93;3.75;;;24.30;67.90;;;;;;4883300;29;20032;-76
2023/08/12 03:47:42;;;;;;;4.28;3.70;;;24.30;67.90;;;;;;4882771;29;20052;-76
2023/08/12 03:50:09;;;;;;;5.30;3.90;;;24.20;67.90;;;;;;4897555;29;20474;-75
2023/08/12 03:52:35;;;;;;;4.82;3.70;;;24.20;67.90;;;;;;4897404;29;20040;-76
2023/08/12 03:55:01;;;;;;;4.32;3.53;;;24.20;68.00;;;;;;4881974;29;20040;-76
2023/08/12 03:57:26;;;;;;;4.15;3.40;;;24.20;68.00;;;;;;4881723;29;20032;-76
2023/08/12 03:59:53;;;;;;;5.70;4.05;;;24.20;68.00;;;;;;4897391;29;20060;-75
2023/08/12 04:02:18;;;;;;;4.93;3.83;;;24.20;68.10;;;;;;4897407;29;20036;-75
2023/08/12 04:04:44;;;;;;;4.43;3.75;;;24.20;68.10;;;;;;4881922;29;20032;-76
2023/08/12 04:07:10;;;;;;;4.40;3.25;;;24.20;68.10;;;;;;4897304;29;20054;-76
2023/08/12 04:09:36;;;;;;;5.22;3.67;;;24.20;68.10;;;;;;4881941;29;20115;-76
2023/08/12 04:12:02;;;;;;;5.35;3.90;;;24.20;68.10;;;;;;4898024;29;20028;-75
2023/08/12 04:14:28;;;;;;;5.78;3.67;;;24.20;68.20;;;;;;4913053;29;20041;-76
2023/08/12 04:16:53;;;;;;;4.35;3.50;;;24.20;68.20;;;;;;4913003;29;20555;-75
2023/08/12 04:19:19;;;;;;;5.13;3.40;;;24.20;68.20;;;;;;4897452;29;20641;-76
2023/08/12 04:21:46;;;;;;;5.25;4.03;;;24.20;68.30;;;;;;4896969;29;20036;-76
2023/08/12 04:24:13;;;;;;;5.70;4.22;;;24.20;68.30;;;;;;4897394;29;20048;-76
2023/08/12 04:26:39;;;;;;;5.07;3.92;;;24.20;68.30;;;;;;4881635;29;20037;-75
2023/08/12 04:29:05;;;;;;;4.97;3.83;;;24.10;68.30;;;;;;4881736;29;20501;-76
2023/08/12 04:31:34;;;;;;;4.35;3.55;;;24.10;68.30;;;;;;4897828;29;20036;-76
2023/08/12 04:34:00;;;;;;;4.60;3.53;;;24.10;68.30;;;;;;4896925;29;20139;-76
2023/08/12 04:36:27;;;;;;;5.65;4.03;;;24.10;68.40;;;;;;4881904;29;20044;-76
2023/08/12 04:38:53;;;;;;;5.10;4.18;;;24.10;68.40;;;;;;4897119;29;20032;-76
2023/08/12 04:41:19;;;;;;;5.72;3.83;;;24.10;68.40;;;;;;4898805;29;20032;-76
2023/08/12 04:43:45;;;;;;;4.90;3.75;;;24.10;68.40;;;;;;4901247;29;20047;-76
2023/08/12 04:46:12;;;;;;;4.82;3.95;;;24.10;68.40;;;;;;4900711;29;20136;-76
2023/08/12 04:48:38;;;;;;;4.97;3.85;;;24.00;68.30;;;;;;4901020;29;20124;-75
2023/08/12 04:51:05;;;;;;;5.07;4.05;;;24.10;68.40;;;;;;4885143;29;20036;-77
2023/08/12 04:53:33;;;;;;;4.90;3.78;;;24.10;68.50;;;;;;4900879;29;20496;-76
2023/08/12 04:55:59;;;;;;;4.75;3.95;;;24.00;68.40;;;;;;4900573;29;20028;-76
2023/08/12 04:58:26;;;;;;;5.03;4.00;;;24.00;68.40;;;;;;4900608;29;20127;-76
2023/08/12 05:00:52;;;;;;;4.60;3.58;;;24.00;68.50;;;;;;4900906;29;20486;-78
2023/08/12 05:03:19;;;;;;;5.00;3.97;;;24.00;68.50;;;;;;4901022;29;20036;-76
2023/08/12 05:05:52;;;;;;;5.10;4.10;;;24.00;68.50;;;;;;4900467;29;20474;-76
2023/08/12 05:08:19;;;;;;;5.10;3.92;;;24.00;68.60;;;;;;4900538;29;20041;-75
2023/08/12 05:10:48;;;;;;;4.50;3.60;;;24.00;68.50;;;;;;4916895;29;20451;-75
2023/08/12 05:13:14;;;;;;;4.90;3.40;;;24.00;68.50;;;;;;4900187;29;20033;-76
2023/08/12 05:15:40;;;;;;;4.57;3.63;;;24.00;68.50;;;;;;4900294;29;20112;-76
2023/08/12 05:18:06;;;;;;;4.63;3.70;;;24.00;68.40;;;;;;4900503;29;20036;-76
2023/08/12 05:20:32;;;;;;;5.47;4.00;;;24.00;68.40;;;;;;4884966;29;20040;-76
2023/08/12 05:22:58;;;;;;;4.18;3.17;;;24.00;68.50;;;;;;4900188;29;20052;-77
2023/08/12 05:25:24;;;;;;;4.35;3.75;;;24.00;68.40;;;;;;4900186;29;20033;-76
2023/08/12 05:27:50;;;;;;;4.00;3.15;;;24.00;68.40;;;;;;4900111;29;20044;-76
2023/08/12 05:30:15;;;;;;;5.85;3.72;;;24.00;68.40;;;;;;4884303;29;20033;-77
2023/08/12 05:32:41;;;;;;;4.22;3.45;;;24.00;68.40;;;;;;4915750;29;20099;-78
2023/08/12 05:35:07;;;;;;;5.45;4.10;;;24.00;68.40;;;;;;4884289;29;20080;-76
2023/08/12 05:37:33;;;;;;;4.53;3.25;;;24.00;68.40;;;;;;4915715;29;20029;-76
2023/08/12 05:39:59;;;;;;;4.53;3.67;;;23.90;68.40;;;;;;4899785;29;20051;-76
2023/08/12 05:42:24;;;;;;;4.68;3.88;;;24.00;68.50;;;;;;4900639;29;20460;-76
2023/08/12 05:44:50;;;;;;;5.00;3.80;;;24.00;68.60;;;;;;4900907;29;20123;-77
2023/08/12 05:47:16;;;;;;;5.13;3.75;;;23.90;68.60;;;;;;4900766;29;20036;-76
2023/08/12 05:49:42;;;;;;;4.32;3.40;;;23.90;68.60;;;;;;4884137;29;20115;-76
2023/08/12 05:52:08;;;;;;;4.88;3.75;;;23.90;68.60;;;;;;4899276;29;20489;-76
2023/08/12 05:54:33;;;;;;;4.45;3.30;;;23.90;68.60;;;;;;4899783;29;20040;-77
2023/08/12 05:56:59;;;;;;;4.80;3.80;;;23.90;68.60;;;;;;4884454;29;20051;-77
2023/08/12 05:59:25;;;;;;;4.50;3.58;;;23.90;68.60;;;;;;4884785;29;20044;-76
2023/08/12 06:01:51;;;;;;;3.97;3.20;;;23.90;68.70;;;;;;4899211;29;20029;-75
2023/08/12 06:04:16;;;;;;;4.20;3.17;;;23.90;68.70;;;;;;4884607;29;20161;-76
2023/08/12 06:06:42;;;;;;;5.55;3.70;;;23.90;68.70;;;;;;4899382;29;20115;-75
2023/08/12 06:09:08;;;;;;;4.00;3.00;;;23.90;69.40;;;;;;4900070;29;20036;-75
2023/08/12 06:11:34;;;;;;;6.63;3.58;;;23.90;68.80;;;;;;4884030;29;20176;-75
2023/08/12 06:13:59;;;;;;;5.68;3.50;;;23.90;68.70;;;;;;4899281;29;20045;-76
2023/08/12 06:16:25;;;;;;;4.40;3.38;;;23.90;68.80;;;;;;4883519;29;20474;-75
2023/08/12 06:18:51;;;;;;;4.70;3.22;;;23.90;68.80;;;;;;4915342;29;20120;-75
2023/08/12 06:21:16;;;;;;;4.10;3.15;;;23.90;68.80;;;;;;4899116;29;20043;-75
2023/08/12 06:23:42;;;;;;;5.28;3.53;;;23.90;68.80;;;;;;4883811;29;20049;-75
2023/08/12 06:26:08;;;;;;;4.68;3.20;;;23.90;68.80;;;;;;4899115;29;20037;-75
2023/08/12 06:28:34;;;;;;;3.95;3.10;;;23.90;68.80;;;;;;4883399;29;20059;-75
2023/08/12 06:31:01;;;;;;;3.53;2.88;;;23.90;68.80;;;;;;4900703;29;20047;-79
2023/08/12 06:33:26;;;;;;;4.38;3.25;;;23.80;68.80;;;;;;4898948;29;20044;-75
2023/08/12 06:35:52;;;;;;;4.35;2.97;;;23.80;68.80;;;;;;4899661;29;20415;-76
2023/08/12 06:38:18;;;;;;;3.30;2.60;;;23.90;68.90;;;;;;4899945;29;20083;-77
2023/08/12 06:40:44;;;;;;;3.90;2.90;;;23.80;68.80;;;;;;4900772;29;20043;-77
2023/08/12 06:43:10;;;;;;;4.97;2.90;;;23.80;68.80;;;;;;4898593;29;20040;-78
2023/08/12 06:45:36;;;;;;;4.30;2.90;;;23.80;68.90;;;;;;4883321;29;20559;-77
2023/08/12 06:48:02;;;;;;;3.78;2.85;;;23.80;68.90;;;;;;4883125;29;20036;-77
2023/08/12 06:50:28;;;;;;;3.53;2.80;;;23.80;69.00;;;;;;4898744;29;20032;-77
2023/08/12 06:52:53;;;;;;;4.57;2.75;;;23.80;69.00;;;;;;4900587;29;20037;-77
2023/08/12 06:55:19;;;;;;;3.40;2.45;;;23.80;69.00;;;;;;4898733;29;20037;-77
2023/08/12 06:57:45;;;;;;;3.78;2.65;;;23.80;69.00;;;;;;4882762;29;20045;-77
2023/08/12 07:00:11;;;;;;;3.60;2.38;;;23.80;69.00;;;;;;4898726;29;20513;-77
2023/08/12 07:02:37;;;;;;;3.60;2.53;;;23.80;69.10;;;;;;4913923;29;20119;-77
2023/08/12 07:05:03;;;;;;;4.72;2.78;;;23.80;69.00;;;;;;4897571;29;20165;-81
2023/08/12 07:07:29;;;;;;;4.22;2.70;;;23.80;69.00;;;;;;4882782;29;20100;-78
2023/08/12 07:09:54;;;;;;;3.42;2.42;;;23.70;69.00;;;;;;4913885;29;20581;-77
2023/08/12 07:12:20;;;;;;;3.80;2.67;;;23.70;69.00;;;;;;4897931;29;20489;-78
2023/08/12 07:14:46;;;;;;;3.72;2.63;;;23.80;69.10;;;;;;4898190;29;20084;-78
2023/08/12 07:17:12;;;;;;;3.58;2.17;;;23.80;69.10;;;;;;4899492;29;20029;-77
2023/08/12 07:19:37;;;;;;;3.95;2.45;;;23.70;69.10;;;;;;4913831;29;20072;-78
2023/08/12 07:22:03;;;;;;;3.17;2.25;;;23.70;69.00;;;;;;4882150;29;20466;-77
2023/08/12 07:24:29;;;;;;;4.15;2.72;;;23.80;69.00;;;;;;4897698;29;20127;-77
2023/08/12 07:26:55;;;;;;;2.95;2.30;;;23.70;68.90;;;;;;4898680;29;20037;-76
2023/08/12 07:29:21;;;;;;;3.80;2.38;;;23.70;68.90;;;;;;4913858;29;20040;-78
2023/08/12 07:31:47;;;;;;;2.97;2.10;;;23.70;68.80;;;;;;4898069;29;20032;-77
2023/08/12 07:34:13;;;;;;;3.35;2.30;;;23.70;68.80;;;;;;4914100;29;20387;-77
2023/08/12 07:36:40;;;;;;;3.33;2.20;;;23.70;68.70;;;;;;4898607;29;20033;-77
2023/08/12 07:39:06;;;;;;;2.70;2.17;;;23.70;68.70;;;;;;4898028;29;20029;-80
2023/08/12 07:41:32;;;;;;;3.30;2.28;;;23.70;68.70;;;;;;4898181;29;20127;-77
2023/08/12 07:43:58;;;;;;;2.38;1.95;;;23.60;68.70;;;;;;4882264;29;20477;-78
2023/08/12 07:46:24;;;;;;;3.28;2.17;;;23.70;68.80;;;;;;4898521;29;20029;-79
2023/08/12 07:48:50;;;;;;;3.03;2.13;;;23.60;68.70;;;;;;4898980;29;20140;-79
2023/08/12 07:51:16;;;;;;;3.45;2.38;;;23.60;68.70;;;;;;4897810;29;20032;-77
2023/08/12 07:53:41;;;;;;;2.50;2.03;;;23.70;68.80;;;;;;4898881;29;20024;-77
2023/08/12 07:56:08;;;;;;;2.70;2.00;;;23.60;68.70;;;;;;4913461;29;20044;-78
2023/08/12 07:58:34;;;;;;;3.08;2.17;;;23.60;68.70;;;;;;4912962;29;20056;-77
2023/08/12 08:00:59;;;;;;;3.00;2.10;;;23.60;68.70;;;;;;4913015;29;20041;-77
2023/08/12 08:03:25;;;;;;;2.60;2.17;;;23.60;68.70;;;;;;4881870;29;20033;-80
2023/08/12 08:05:52;;;;;;;2.53;1.80;;;23.60;68.80;;;;;;4913115;29;20040;-77
2023/08/12 08:08:19;;;;;;;2.88;2.10;;;23.60;68.80;;;;;;4881768;29;20041;-76
2023/08/12 08:10:45;;;;;;;2.55;1.90;;;23.60;68.80;;;;;;4897412;29;20462;-77
2023/08/12 08:13:10;;;;;;;2.83;2.20;;;23.60;68.80;;;;;;4897575;29;20053;-78
2023/08/12 08:15:37;;;;;;;2.78;2.03;;;23.60;68.80;;;;;;4897415;29;20040;-78
2023/08/12 08:18:04;;;;;;;1.92;1.60;;;23.60;68.80;;;;;;4882136;29;20475;-77
2023/08/12 08:20:30;;;;;;;2.63;1.90;;;23.60;68.80;;;;;;4897541;29;20040;-77
2023/08/12 08:22:56;;;;;;;2.30;1.70;;;23.60;68.80;;;;;;4881960;29;20060;-77
2023/08/12 08:25:22;;;;;;;2.83;2.05;;;23.60;68.80;;;;;;4912861;29;20498;-78
2023/08/12 08:27:47;;;;;;;2.38;1.80;;;23.60;68.80;;;;;;4912618;29;20410;-77
2023/08/12 08:30:13;;;;;;;2.88;1.80;;;23.60;68.90;;;;;;4897416;29;20103;-78
2023/08/12 08:32:39;;;;;;;2.38;1.67;;;23.60;68.80;;;;;;4897212;29;20052;-78
2023/08/12 08:35:05;;;;;;;2.42;1.77;;;23.60;68.90;;;;;;4896891;29;20467;-77
2023/08/12 08:37:31;;;;;;;2.33;1.70;;;23.60;68.90;;;;;;4882224;29;20037;-77
2023/08/12 08:39:56;;;;;;;1.75;1.50;;;23.60;68.90;;;;;;4897576;29;20100;-79
2023/08/12 08:42:24;;;;;;;1.77;1.60;;;23.60;68.90;;;;;;4897016;29;20043;-77
2023/08/12 08:44:53;;;;;;;2.63;1.60;;;23.60;69.00;;;;;;4897153;29;20036;-77
2023/08/12 08:47:26;;;;;;;2.35;2.00;;;23.60;69.00;;;;;;4897046;29;20060;-77
2023/08/12 08:49:56;;;;;;;1.55;1.30;;;23.60;69.00;;;;;;4896811;29;20474;-77
2023/08/12 08:52:23;;;;;;;1.60;1.50;;;23.60;69.00;;;;;;4897067;29;20036;-78
2023/08/12 08:54:50;;;;;;;2.10;1.90;;;23.60;69.00;;;;;;4881625;29;20482;-77
2023/08/12 08:57:16;;;;;;;2.20;1.52;;;23.60;69.00;;;;;;4896695;29;20032;-77
2023/08/12 08:59:42;;;;;;;2.15;1.52;;;23.60;69.00;;;;;;4896935;29;20453;-77
2023/08/12 09:02:17;;;;;;;2.10;1.45;;;23.60;69.00;;;;;;4897312;29;20128;-77
2023/08/12 09:04:47;;;;;;;1.55;1.40;;;23.60;69.00;;;;;;4913076;29;20032;-79
2023/08/12 09:07:16;;;;;;;2.10;1.40;;;23.60;69.00;;;;;;4897033;29;20128;-77
2023/08/12 09:09:47;;;;;;;1.60;1.50;;;23.60;69.60;;;;;;4897162;29;20029;-78
2023/08/12 09:12:16;;;;;;;1.80;1.60;;;23.60;69.00;;;;;;4896257;29;20024;-79
2023/08/12 09:14:44;;;;;;;1.40;1.30;;;23.60;68.90;;;;;;4897327;29;20040;-77
2023/08/12 09:17:11;;;;;;;1.50;1.25;;;23.60;69.00;;;;;;4897520;29;20041;-78
2023/08/12 09:19:36;;;;;;;1.70;1.60;;;23.60;69.00;;;;;;4897455;29;20464;-77
2023/08/12 09:22:09;;;;;;;1.40;1.30;;;23.60;68.90;;;;;;4896121;29;20033;-77
2023/08/12 09:24:34;;;;;;;1.38;1.27;;;23.60;69.00;;;;;;4896057;29;20048;-77
2023/08/12 09:27:01;;;;;;;1.67;1.40;;;23.60;68.90;;;;;;4881764;29;20044;-77
2023/08/12 09:29:31;;;;;;;1.80;1.55;;;23.60;68.90;;;;;;4899444;29;20135;-77
2023/08/12 09:32:26;;;;;;;1.98;1.48;;;23.70;69.00;;;;;;4900471;29;20036;-78
2023/08/12 09:34:54;;;;;;;1.30;1.20;;;23.60;69.00;;;;;;4902486;29;20498;-77
2023/08/12 09:37:23;;;;;;;1.45;1.25;;;23.60;68.90;;;;;;4915176;29;20072;-78
2023/08/12 09:39:50;;;;;;;1.30;1.20;;;23.70;68.90;;;;;;4899352;29;20081;-77
2023/08/12 09:42:17;;;;;;;2.05;1.42;;;23.70;69.00;;;;;;4899915;29;20044;-82
2023/08/12 09:44:43;;;;;;;1.58;1.40;;;23.70;69.00;;;;;;4901180;29;20084;-81
2023/08/12 09:47:10;;;;;;;1.20;1.10;;;23.70;69.10;;;;;;4914802;29;20048;-75
2023/08/12 09:49:37;;;;;;;1.23;1.00;;;23.70;69.60;;;;;;4899046;29;20375;-78
2023/08/12 09:52:07;;;;;;;0.82;0.82;;;23.70;70.10;;;;;;4899834;29;20064;-78
2023/08/12 09:54:34;;;;;;;0.80;0.80;;;23.70;70.80;;;;;;4883095;29;20025;-75
2023/08/12 09:57:02;;;;;;;0.70;0.70;;;23.80;71.10;;;;;;4898938;29;20036;-75
2023/08/12 09:59:31;;;;;;;0.95;0.90;;;23.80;71.60;;;;;;4898931;29;20021;-76
2023/08/12 10:01:58;;;;;;;0.77;0.77;;;23.80;71.80;;;;;;4899099;29;20069;-77
2023/08/12 10:04:28;;;;;;;1.20;0.90;;;23.80;71.90;;;;;;4914472;29;20048;-78
2023/08/12 10:06:55;;;;;;;0.73;0.57;;;23.80;72.20;;;;;;4898648;29;20131;-77
2023/08/12 10:09:21;;;;;;;0.50;0.50;;;23.90;72.30;;;;;;4898803;29;20371;-78
2023/08/12 10:11:47;;;;;;;0.60;0.60;;;23.90;72.30;;;;;;4882951;29;20160;-77
2023/08/12 10:14:14;;;;;;;0.50;0.50;;;23.90;72.10;;;;;;4883285;29;20112;-79
2023/08/12 10:16:45;;;;;;;0.55;0.55;;;23.90;72.10;;;;;;4898401;29;20039;-77
2023/08/12 10:19:11;;;;;;;0.60;0.60;;;24.00;72.10;;;;;;4899698;29;20029;-77
2023/08/12 10:21:38;;;;;;;0.60;0.60;;;24.00;72.10;;;;;;4883039;29;20478;-77
2023/08/12 10:24:06;;;;;;;0.63;0.60;;;24.00;72.00;;;;;;4898295;29;20047;-77
2023/08/12 10:26:32;;;;;;;0.82;0.68;;;24.00;71.90;;;;;;4898297;29;20029;-77
2023/08/12 10:29:00;;;;;;;0.77;0.70;;;24.00;71.80;;;;;;4914308;29;20119;-77
2023/08/12 10:31:29;;;;;;;0.70;0.70;;;24.00;71.70;;;;;;4899712;29;20020;-77
2023/08/12 10:33:57;;;;;;;0.65;0.65;;;24.10;71.70;;;;;;4899446;29;20024;-76
2023/08/12 10:36:22;;;;;;;0.60;0.60;;;24.20;71.60;;;;;;4898902;29;20084;-78
2023/08/12 10:38:48;;;;;;;0.50;0.50;;;24.20;71.50;;;;;;4899383;29;20040;-77
2023/08/12 10:41:22;;;;;;;0.60;0.60;;;24.20;71.40;;;;;;4898804;29;20529;-77
2023/08/12 10:44:03;;;;;;;1.13;0.70;;;24.30;71.40;;;;;;4899878;29;20047;-77
2023/08/12 10:46:36;;;;;;;1.52;0.70;;;24.30;71.30;;;;;;4915220;29;20405;-77
2023/08/12 10:49:07;;;;;;;0.60;0.60;;;24.30;71.20;;;;;;4900684;29;20051;-77
2023/08/12 10:51:41;;;;;;;0.82;0.82;;;24.40;71.00;;;;;;4898503;29;20043;-77
2023/08/12 10:54:22;;;;;;;1.08;0.75;;;24.50;71.00;;;;;;4898655;29;20033;-77
2023/08/12 10:57:08;;;;;;;0.77;0.77;;;24.50;70.90;;;;;;4898919;29;20127;-76
2023/08/12 10:59:46;;;;;;;0.80;0.80;;;24.60;71.50;;;;;;4898581;29;20471;-77
2023/08/12 11:02:18;;;;;;;0.70;0.70;;;24.60;70.70;;;;;;4898163;29;20033;-77
2023/08/12 11:04:54;;;;;;;1.08;0.90;;;24.60;70.60;;;;;;4914131;29;20032;-77
2023/08/12 11:07:47;;;;;;;1.95;0.80;;;24.70;70.50;;;;;;4913904;29;20446;-77
2023/08/12 11:10:25;;;;;;;1.02;0.80;;;24.70;70.50;;;;;;4895722;29;20040;-76
2023/08/12 11:12:56;;;;;;;1.15;0.80;;;24.70;70.30;;;;;;4898576;29;20160;-77
2023/08/12 11:15:39;;;;;;;2.15;1.10;;;24.80;70.30;;;;;;4914190;29;20036;-78
2023/08/12 11:18:06;;;;;;;0.68;0.68;;;24.80;70.30;;;;;;4898797;29;20044;-78
2023/08/12 11:20:33;;;;;;;0.70;0.70;;;24.80;70.10;;;;;;4897990;29;20025;-78
2023/08/12 11:22:59;;;;;;;1.15;0.90;;;24.80;70.10;;;;;;4897803;29;20037;-78
2023/08/12 11:25:27;;;;;;;0.90;0.68;;;24.90;70.10;;;;;;4882169;29;20127;-77
2023/08/12 11:27:53;;;;;;;1.15;1.05;;;24.90;70.10;;;;;;4898833;29;20047;-77
2023/08/12 11:30:24;;;;;;;2.22;1.00;;;24.90;70.00;;;;;;4899317;29;20064;-77
2023/08/12 11:32:52;;;;;;;1.05;0.73;;;25.00;70.70;;;;;;4898671;29;20041;-77
2023/08/12 11:35:19;;;;;;;0.98;0.85;;;25.00;70.00;;;;;;4899164;29;20053;-77
2023/08/12 11:37:48;;;;;;;1.63;1.00;;;25.00;70.00;;;;;;4898757;29;20033;-77
2023/08/12 11:40:16;;;;;;;1.45;0.85;;;25.10;70.70;;;;;;4897977;29;20029;-78
2023/08/12 11:42:44;;;;;;;1.17;0.93;;;25.10;70.00;;;;;;4898316;29;20064;-77
2023/08/12 11:45:10;;;;;;;1.23;0.80;;;25.10;70.00;;;;;;4897475;29;20067;-76
2023/08/12 11:47:38;;;;;;;1.17;1.00;;;25.10;70.00;;;;;;4898856;29;20041;-77
2023/08/12 11:50:04;;;;;;;1.17;0.85;;;25.10;69.90;;;;;;4912715;29;20036;-83
2023/08/12 11:52:31;;;;;;;0.63;0.63;;;25.20;70.00;;;;;;4897626;29;20041;-82
2023/08/12 11:54:57;;;;;;;1.80;1.00;;;25.20;69.90;;;;;;4882310;29;20044;-78
2023/08/12 11:57:23;;;;;;;1.15;0.80;;;25.20;69.90;;;;;;4897427;29;20036;-76
2023/08/12 11:59:50;;;;;;;0.82;0.82;;;25.20;70.00;;;;;;4897353;29;20044;-77
2023/08/12 12:02:16;;;;;;;1.63;0.88;;;25.20;70.00;;;;;;4882482;29;20141;-80
2023/08/12 12:04:45;;;;;;;1.35;1.10;;;25.30;70.00;;;;;;4897446;29;20123;-77
2023/08/12 12:07:21;;;;;;;1.38;0.90;;;25.30;70.00;;;;;;4882466;29;20062;-79
2023/08/12 12:09:51;;;;;;;1.85;1.10;;;25.30;69.90;;;;;;4881911;29;20047;-81
2023/08/12 12:12:17;;;;;;;1.40;0.75;;;25.30;69.80;;;;;;4897369;29;20045;-78
2023/08/12 12:14:42;;;;;;;1.15;1.02;;;25.40;69.80;;;;;;4882499;29;20455;-78
2023/08/12 12:17:10;;;;;;;1.52;0.98;;;25.40;69.70;;;;;;4897279;29;20044;-77
2023/08/12 12:19:36;;;;;;;1.13;0.90;;;25.40;69.70;;;;;;4881793;29;20116;-77
2023/08/12 12:22:05;;;;;;;2.13;1.17;;;25.40;69.70;;;;;;4897929;29;20075;-77
2023/08/12 12:24:31;;;;;;;0.93;0.85;;;25.40;69.60;;;;;;4881551;29;20032;-77
2023/08/12 12:26:57;;;;;;;1.48;1.10;;;25.40;69.60;;;;;;4897066;29;20044;-77
2023/08/12 12:29:23;;;;;;;1.42;0.93;;;25.50;69.60;;;;;;4897884;29;20415;-78
2023/08/12 12:31:49;;;;;;;2.50;1.38;;;25.50;69.50;;;;;;4896961;29;20040;-79
2023/08/12 12:34:14;;;;;;;1.92;1.08;;;25.50;69.20;;;;;;4865757;29;20069;-78
2023/08/12 12:36:40;;;;;;;2.22;1.35;;;25.50;69.00;;;;;;4897202;29;20046;-76
2023/08/12 12:39:07;;;;;;;1.67;1.30;;;25.50;68.90;;;;;;4912816;29;20041;-77
2023/08/12 12:41:33;;;;;;;1.20;0.98;;;25.50;68.70;;;;;;4896815;29;20068;-77
2023/08/12 12:44:01;;;;;;;1.52;1.10;;;25.60;68.70;;;;;;4881110;29;20482;-77
2023/08/12 12:46:27;;;;;;;2.25;1.27;;;25.60;68.70;;;;;;4896541;29;20076;-77
2023/08/12 12:48:53;;;;;;;1.52;1.10;;;25.60;68.70;;;;;;4896758;29;20088;-76